Time;durP1;ratioP1;P1;durP2;ratioP2;P2;SDS_P1;SDS_P2;PMS_P1;PMS_P2;Temp;Humidity;BMP_temperature;BMP_pressure;BME280_temperature;BME280_humidity;BME280_pressure;Samples;Min_cycle;Max_cycle;Signal;HPM_P1;HPM_P2
2022/11/28 00:02:22;;;;;;;714.77;662.83;;;6.40;99.90;;;;;;5019727;28;20449;-82
2022/11/28 00:04:52;;;;;;;707.87;655.87;;;6.50;99.90;;;;;;5020364;28;20457;-83
2022/11/28 00:07:19;;;;;;;716.57;664.07;;;6.40;99.90;;;;;;5020814;28;20473;-82
2022/11/28 00:09:46;;;;;;;710.50;659.23;;;6.40;99.90;;;;;;5020101;28;20481;-82
2022/11/28 00:12:12;;;;;;;706.37;655.70;;;6.50;99.90;;;;;;5020094;28;20461;-82
2022/11/28 00:14:39;;;;;;;699.67;649.77;;;6.50;99.90;;;;;;5020743;28;20453;-82
2022/11/28 00:17:06;;;;;;;689.27;640.60;;;6.50;99.90;;;;;;5020353;28;20477;-81
2022/11/28 00:19:32;;;;;;;696.17;647.10;;;6.50;99.90;;;;;;5019960;28;20461;-82
2022/11/28 00:22:00;;;;;;;687.13;638.13;;;6.50;99.90;;;;;;5019413;28;20942;-81
2022/11/28 00:24:27;;;;;;;685.57;636.47;;;6.50;99.90;;;;;;5020396;28;20467;-82
2022/11/28 00:26:54;;;;;;;679.87;633.00;;;6.60;99.90;;;;;;5020080;28;20453;-82
2022/11/28 00:29:21;;;;;;;675.90;628.27;;;6.50;99.90;;;;;;5019681;28;20457;-82
2022/11/28 00:31:48;;;;;;;679.73;632.20;;;6.50;99.90;;;;;;5020233;28;20488;-82
2022/11/28 00:34:15;;;;;;;687.83;639.87;;;6.50;99.90;;;;;;5020293;28;20457;-82
2022/11/28 00:36:44;;;;;;;691.13;641.40;;;6.50;99.90;;;;;;5001184;28;20461;-82
2022/11/28 00:39:12;;;;;;;681.83;633.47;;;6.40;99.90;;;;;;5001556;28;20846;-84
2022/11/28 00:41:39;;;;;;;703.07;652.57;;;6.60;99.90;;;;;;5019894;28;20476;-83
2022/11/28 00:44:05;;;;;;;696.60;647.23;;;6.50;99.90;;;;;;5019575;28;20822;-83
2022/11/28 00:46:32;;;;;;;701.13;649.00;;;6.50;99.90;;;;;;5019882;28;20453;-83
2022/11/28 00:48:59;;;;;;;699.03;646.23;;;6.40;99.90;;;;;;5019714;28;20495;-82
2022/11/28 00:51:28;;;;;;;700.20;646.63;;;6.50;99.90;;;;;;5019549;28;20485;-82
2022/11/28 00:53:58;;;;;;;705.13;650.53;;;6.50;99.90;;;;;;5019493;28;20454;-84
2022/11/28 00:56:29;;;;;;;696.53;641.77;;;6.50;99.90;;;;;;5020322;28;20456;-82
2022/11/28 00:58:56;;;;;;;686.93;631.93;;;6.50;99.90;;;;;;5019720;28;20473;-82
2022/11/28 01:01:24;;;;;;;691.23;635.83;;;6.50;99.90;;;;;;5019236;28;20453;-82
2022/11/28 01:03:54;;;;;;;689.37;633.97;;;6.50;99.90;;;;;;5019506;28;20454;-82
2022/11/28 01:06:22;;;;;;;692.00;636.97;;;6.50;99.90;;;;;;5019140;28;20446;-83
2022/11/28 01:08:49;;;;;;;680.90;626.40;;;6.50;99.90;;;;;;5019290;28;20564;-83
2022/11/28 01:11:16;;;;;;;682.87;628.00;;;6.50;99.90;;;;;;5017529;28;20477;-82
2022/11/28 01:13:44;;;;;;;688.50;633.47;;;6.50;99.90;;;;;;5018932;28;20851;-85
2022/11/28 01:16:11;;;;;;;679.30;623.40;;;6.60;99.90;;;;;;5018285;28;20453;-85
2022/11/28 01:18:38;;;;;;;685.77;630.67;;;6.60;99.90;;;;;;5019093;28;20481;-83
2022/11/28 01:21:06;;;;;;;683.67;627.53;;;6.50;99.90;;;;;;5018011;28;20821;-83
2022/11/28 01:23:34;;;;;;;692.47;635.47;;;6.60;99.90;;;;;;5018438;28;20457;-83
2022/11/28 01:26:01;;;;;;;696.60;639.87;;;6.50;99.90;;;;;;5019011;28;20450;-82
2022/11/28 01:28:28;;;;;;;697.10;640.30;;;6.60;99.90;;;;;;5019643;28;20527;-83
2022/11/28 01:30:57;;;;;;;691.87;634.77;;;6.60;99.90;;;;;;5018133;28;20477;-84
2022/11/28 01:33:23;;;;;;;702.30;644.60;;;6.60;99.90;;;;;;5019219;28;20449;-85
2022/11/28 01:35:57;;;;;;;701.03;642.83;;;6.50;99.90;;;;;;5018484;28;20453;-85
2022/11/28 01:38:25;;;;;;;708.33;651.00;;;6.60;99.90;;;;;;5017614;28;20481;-83
2022/11/28 01:40:52;;;;;;;703.57;646.40;;;6.60;99.90;;;;;;5018427;28;20533;-82
2022/11/28 01:43:19;;;;;;;710.13;652.50;;;6.60;99.90;;;;;;5018679;28;20449;-83
2022/11/28 01:45:46;;;;;;;708.47;651.37;;;6.60;99.90;;;;;;5018548;28;20451;-83
2022/11/28 01:48:18;;;;;;;704.73;647.03;;;6.50;99.90;;;;;;5018453;28;20489;-84
2022/11/28 01:50:48;;;;;;;708.93;651.70;;;6.60;99.90;;;;;;5018029;28;20481;-85
2022/11/28 01:53:16;;;;;;;711.47;654.47;;;6.60;99.90;;;;;;5018311;28;20453;-83
2022/11/28 01:55:48;;;;;;;700.40;643.50;;;6.60;99.90;;;;;;5017809;28;20969;-84
2022/11/28 01:58:15;;;;;;;704.03;647.67;;;6.60;99.90;;;;;;5018973;28;20481;-86
2022/11/28 02:00:42;;;;;;;704.73;648.30;;;6.60;99.90;;;;;;5020350;28;20462;-84
2022/11/28 02:03:14;;;;;;;698.50;642.33;;;6.60;99.90;;;;;;5021629;28;20453;-84
2022/11/28 02:05:42;;;;;;;698.50;642.77;;;6.60;99.90;;;;;;5020225;28;20835;-83
2022/11/28 02:08:09;;;;;;;703.83;647.50;;;6.60;99.90;;;;;;5020174;28;20477;-83
2022/11/28 02:10:46;;;;;;;697.30;641.30;;;6.60;99.90;;;;;;5019388;28;20473;-84
2022/11/28 02:13:29;;;;;;;698.93;642.97;;;6.60;99.90;;;;;;5020169;28;20463;-84
2022/11/28 02:16:11;;;;;;;699.03;642.40;;;6.60;99.90;;;;;;5019357;28;20448;-87
2022/11/28 02:18:50;;;;;;;694.97;639.40;;;6.50;99.90;;;;;;5003673;28;20480;-86
2022/11/28 02:21:28;;;;;;;694.43;638.47;;;6.50;99.90;;;;;;5019704;28;20460;-83
2022/11/28 02:24:40;;;;;;;685.07;629.93;;;6.50;99.90;;;;;;5020278;28;20460;-84
2022/11/28 02:27:22;;;;;;;671.10;617.00;;;6.50;99.90;;;;;;5020249;28;20461;-83
2022/11/28 02:30:14;;;;;;;668.63;614.23;;;6.60;99.90;;;;;;5017696;28;20456;-83
2022/11/28 02:33:14;;;;;;;673.33;619.73;;;6.60;99.90;;;;;;5017925;28;20453;-84
2022/11/28 02:35:55;;;;;;;661.93;608.13;;;6.60;99.90;;;;;;5016464;28;20449;-85
2022/11/28 02:38:30;;;;;;;657.10;602.97;;;6.60;99.90;;;;;;5017781;28;20480;-83
2022/11/28 02:41:01;;;;;;;650.40;595.80;;;6.50;99.90;;;;;;5017751;28;20942;-84
2022/11/28 02:43:38;;;;;;;654.40;599.87;;;6.50;99.90;;;;;;5018198;28;20461;-81
2022/11/28 02:46:12;;;;;;;655.03;599.07;;;6.50;99.90;;;;;;5018141;28;20437;-81
2022/11/28 02:48:48;;;;;;;674.73;618.33;;;6.50;99.90;;;;;;5018101;28;20465;-81
2022/11/28 02:51:18;;;;;;;689.57;633.20;;;6.60;99.90;;;;;;5020751;28;20495;-81
2022/11/28 02:53:46;;;;;;;693.10;637.40;;;6.50;99.90;;;;;;5021922;28;20457;-82
2022/11/28 02:56:13;;;;;;;700.30;643.00;;;6.60;99.90;;;;;;5022494;28;20453;-82
2022/11/28 02:58:40;;;;;;;699.30;641.77;;;6.50;99.90;;;;;;5022665;28;20473;-83
2022/11/28 03:01:16;;;;;;;679.83;622.50;;;6.50;99.90;;;;;;5021303;28;20449;-82
2022/11/28 03:03:55;;;;;;;688.33;629.63;;;6.50;99.90;;;;;;5022263;28;20460;-83
2022/11/28 03:06:32;;;;;;;698.37;639.20;;;6.50;99.90;;;;;;5022370;28;20441;-83
2022/11/28 03:09:20;;;;;;;702.40;642.13;;;6.50;99.90;;;;;;5021707;28;20479;-82
2022/11/28 03:11:54;;;;;;;714.47;653.83;;;6.50;99.90;;;;;;5018326;28;20469;-84
2022/11/28 03:14:32;;;;;;;708.97;648.57;;;6.40;99.90;;;;;;5018283;28;20449;-83
2022/11/28 03:17:13;;;;;;;714.33;653.83;;;6.50;99.90;;;;;;5001577;28;20458;-84
2022/11/28 03:19:48;;;;;;;724.10;663.40;;;6.50;99.90;;;;;;5008340;28;20453;-82
2022/11/28 03:22:26;;;;;;;709.30;649.20;;;6.50;99.90;;;;;;5021672;28;20448;-82
2022/11/28 03:24:57;;;;;;;715.07;652.87;;;6.40;99.90;;;;;;5022266;28;20453;-83
2022/11/28 03:27:27;;;;;;;699.63;637.87;;;6.40;99.90;;;;;;5021399;28;20531;-83
2022/11/28 03:29:57;;;;;;;711.13;647.87;;;6.50;99.90;;;;;;5020990;28;20449;-83
2022/11/28 03:32:27;;;;;;;716.47;654.87;;;6.40;99.90;;;;;;5020489;28;20477;-82
2022/11/28 03:35:01;;;;;;;712.60;650.40;;;6.50;99.90;;;;;;5020518;28;20941;-85
2022/11/28 03:37:31;;;;;;;710.43;648.53;;;6.40;99.90;;;;;;5018772;28;20477;-83
2022/11/28 03:40:02;;;;;;;691.87;629.40;;;6.40;99.90;;;;;;5011802;28;20460;-85
2022/11/28 03:42:34;;;;;;;699.73;636.47;;;6.50;99.90;;;;;;5018962;28;20449;-83
2022/11/28 03:45:08;;;;;;;700.70;637.00;;;6.50;99.90;;;;;;5001422;28;20462;-83
2022/11/28 03:47:41;;;;;;;687.27;624.50;;;6.40;99.90;;;;;;5014101;28;20476;-84
2022/11/28 03:50:15;;;;;;;692.37;629.60;;;6.40;99.90;;;;;;5020372;28;20829;-83
2022/11/28 03:52:49;;;;;;;704.20;641.87;;;6.40;99.90;;;;;;5019695;28;20488;-83
2022/11/28 03:55:21;;;;;;;712.20;648.30;;;6.40;99.90;;;;;;5021010;28;20453;-83
2022/11/28 03:57:51;;;;;;;715.57;651.97;;;6.40;99.90;;;;;;5021266;28;20488;-83
2022/11/28 04:00:18;;;;;;;716.13;651.00;;;6.40;99.90;;;;;;5011398;28;20829;-85
2022/11/28 04:02:52;;;;;;;710.37;647.20;;;6.40;99.90;;;;;;5002316;28;20493;-85
2022/11/28 04:05:27;;;;;;;716.67;653.07;;;6.40;99.90;;;;;;5001323;28;20533;-83
2022/11/28 04:07:58;;;;;;;707.33;642.57;;;6.40;99.90;;;;;;5002023;28;20986;-83
2022/11/28 04:10:32;;;;;;;685.80;623.20;;;6.40;99.90;;;;;;5000849;28;20465;-83
2022/11/28 04:13:02;;;;;;;687.03;625.53;;;6.40;99.90;;;;;;5014452;28;20947;-83
2022/11/28 04:15:38;;;;;;;695.90;632.50;;;6.40;99.90;;;;;;5021153;28;20449;-83
2022/11/28 04:18:17;;;;;;;695.67;632.90;;;6.40;99.90;;;;;;5021651;28;20472;-83
2022/11/28 04:20:52;;;;;;;714.10;650.00;;;6.30;99.90;;;;;;5020149;28;20455;-84
2022/11/28 04:23:21;;;;;;;724.57;660.00;;;6.40;99.90;;;;;;5020557;28;20456;-84
2022/11/28 04:25:52;;;;;;;719.87;656.57;;;6.40;99.90;;;;;;5020586;28;20468;-82
2022/11/28 04:28:23;;;;;;;726.00;661.50;;;6.30;99.90;;;;;;5020403;28;20473;-83
2022/11/28 04:30:52;;;;;;;714.07;649.80;;;6.30;99.90;;;;;;5019338;28;20460;-82
2022/11/28 04:33:22;;;;;;;719.93;655.97;;;6.30;99.90;;;;;;5020073;28;20456;-83
2022/11/28 04:35:53;;;;;;;730.90;665.43;;;6.30;99.90;;;;;;5020401;28;20449;-83
2022/11/28 04:38:22;;;;;;;697.17;633.50;;;6.30;99.90;;;;;;5020922;28;20552;-83
2022/11/28 04:40:53;;;;;;;715.10;650.73;;;6.30;99.90;;;;;;5020364;28;20456;-82
2022/11/28 04:43:24;;;;;;;724.67;658.20;;;6.20;99.90;;;;;;5019531;28;20452;-83
2022/11/28 04:46:18;;;;;;;707.87;643.13;;;6.20;99.90;;;;;;5022230;28;20945;-86
2022/11/28 04:48:45;;;;;;;718.67;654.17;;;6.30;99.90;;;;;;5014847;28;20477;-83
2022/11/28 04:51:20;;;;;;;711.57;646.67;;;6.20;99.90;;;;;;5018587;28;20473;-83
2022/11/28 04:53:52;;;;;;;714.10;649.57;;;6.30;99.90;;;;;;5019349;28;20456;-83
2022/11/28 04:56:23;;;;;;;683.50;619.43;;;6.30;99.90;;;;;;5020482;28;20834;-83
2022/11/28 04:58:50;;;;;;;684.70;621.10;;;6.20;99.90;;;;;;5019670;28;20477;-82
2022/11/28 05:01:22;;;;;;;676.13;612.17;;;6.20;99.90;;;;;;5018916;28;20448;-83
2022/11/28 05:03:49;;;;;;;670.10;606.50;;;6.20;99.90;;;;;;5018858;28;20453;-83
2022/11/28 05:06:25;;;;;;;681.27;617.63;;;6.20;99.90;;;;;;5019951;28;20464;-82
2022/11/28 05:08:52;;;;;;;677.93;613.37;;;6.20;99.90;;;;;;5018461;28;21067;-82
2022/11/28 05:11:19;;;;;;;676.27;611.57;;;6.20;99.90;;;;;;5017892;28;20473;-83
2022/11/28 05:13:46;;;;;;;687.63;624.10;;;6.20;99.90;;;;;;5017945;28;20457;-82
2022/11/28 05:16:14;;;;;;;684.37;619.87;;;6.20;99.90;;;;;;5019390;28;20460;-84
2022/11/28 05:18:41;;;;;;;693.97;629.43;;;6.20;99.90;;;;;;5018181;28;20474;-82
2022/11/28 05:21:08;;;;;;;704.20;638.73;;;6.20;99.90;;;;;;5017958;28;20449;-82
2022/11/28 05:23:36;;;;;;;697.13;632.23;;;6.10;99.90;;;;;;5018341;28;20454;-82
2022/11/28 05:26:06;;;;;;;730.37;665.73;;;6.20;99.90;;;;;;5019910;28;20449;-83
2022/11/28 05:28:33;;;;;;;720.50;656.00;;;6.20;99.90;;;;;;5020229;28;20480;-83
2022/11/28 05:31:01;;;;;;;726.77;662.40;;;6.30;99.90;;;;;;5018217;28;21040;-82
2022/11/28 05:33:29;;;;;;;707.77;643.90;;;6.20;99.90;;;;;;5019297;28;20449;-83
2022/11/28 05:35:55;;;;;;;716.10;650.80;;;6.20;99.90;;;;;;5018689;28;20453;-83
2022/11/28 05:38:22;;;;;;;719.63;655.77;;;6.20;99.90;;;;;;5019216;28;20481;-82
2022/11/28 05:40:50;;;;;;;713.90;649.20;;;6.20;99.90;;;;;;5018228;28;20829;-83
2022/11/28 05:43:17;;;;;;;737.83;673.37;;;6.20;99.90;;;;;;5018672;28;20479;-84
2022/11/28 05:45:44;;;;;;;710.17;645.43;;;6.20;99.90;;;;;;5018827;28;20965;-82
2022/11/28 05:48:11;;;;;;;709.03;645.03;;;6.20;99.90;;;;;;5018685;28;20479;-83
2022/11/28 05:50:39;;;;;;;714.87;650.07;;;6.20;99.90;;;;;;5018444;28;20457;-84
2022/11/28 05:53:06;;;;;;;715.83;651.03;;;6.20;99.90;;;;;;5018527;28;21004;-83
2022/11/28 05:55:32;;;;;;;722.60;659.60;;;6.30;99.90;;;;;;5018363;28;20463;-83
2022/11/28 05:58:01;;;;;;;733.60;670.20;;;6.40;99.90;;;;;;5018306;28;20484;-82
2022/11/28 06:00:57;;;;;;;712.63;649.50;;;6.20;99.90;;;;;;5018805;28;20453;-83
2022/11/28 06:03:29;;;;;;;719.87;656.20;;;6.30;99.90;;;;;;5016863;28;20848;-82
2022/11/28 06:06:19;;;;;;;726.50;663.10;;;6.20;99.90;;;;;;5018756;28;20523;-82
2022/11/28 06:08:58;;;;;;;718.80;656.03;;;6.10;99.90;;;;;;5018251;28;20485;-82
2022/11/28 06:11:41;;;;;;;690.93;628.57;;;6.20;99.90;;;;;;5018168;28;20465;-82
2022/11/28 06:14:25;;;;;;;689.63;627.83;;;6.00;99.90;;;;;;5017844;28;20457;-82
2022/11/28 06:16:52;;;;;;;701.37;639.70;;;6.00;99.90;;;;;;5019068;28;20437;-81
2022/11/28 06:19:19;;;;;;;687.30;626.90;;;6.20;99.90;;;;;;5018946;28;20449;-83
2022/11/28 06:21:46;;;;;;;708.53;648.30;;;6.20;99.90;;;;;;5018519;28;20949;-81
2022/11/28 06:24:12;;;;;;;711.27;650.67;;;6.10;99.90;;;;;;5020075;28;20551;-84
2022/11/28 06:26:39;;;;;;;707.70;646.43;;;6.10;99.90;;;;;;5022414;28;20529;-82
2022/11/28 06:29:06;;;;;;;716.40;655.40;;;6.10;99.90;;;;;;5021982;28;20508;-82
2022/11/28 06:31:34;;;;;;;712.47;651.67;;;6.30;99.90;;;;;;5022277;28;20471;-82
2022/11/28 06:34:01;;;;;;;708.83;647.90;;;6.20;99.90;;;;;;5021778;28;20516;-81
2022/11/28 06:36:29;;;;;;;714.27;652.17;;;6.10;99.90;;;;;;5021744;28;20449;-82
2022/11/28 06:38:56;;;;;;;712.70;651.10;;;6.20;99.90;;;;;;5021056;28;20480;-84
2022/11/28 06:41:23;;;;;;;709.87;648.10;;;6.20;99.90;;;;;;5021870;28;20460;-83
2022/11/28 06:43:50;;;;;;;716.57;654.27;;;6.30;99.90;;;;;;5022379;28;20453;-84
2022/11/28 06:46:19;;;;;;;732.70;669.23;;;6.20;99.90;;;;;;5024566;28;20941;-84
2022/11/28 06:48:48;;;;;;;723.60;660.47;;;6.20;99.90;;;;;;5023946;28;20483;-83
2022/11/28 06:51:15;;;;;;;714.93;652.60;;;6.20;99.90;;;;;;5024375;28;20457;-83
2022/11/28 06:53:42;;;;;;;717.77;655.23;;;6.20;99.90;;;;;;5023397;28;20480;-83
2022/11/28 06:56:11;;;;;;;716.13;655.27;;;6.40;99.90;;;;;;5022280;28;20548;-84
2022/11/28 06:58:38;;;;;;;717.87;656.80;;;6.30;99.90;;;;;;5021011;28;20473;-82
2022/11/28 07:01:07;;;;;;;696.27;634.87;;;6.30;99.90;;;;;;5021404;28;20453;-83
2022/11/28 07:03:33;;;;;;;710.50;649.40;;;6.30;99.90;;;;;;5022499;28;20895;-84
2022/11/28 07:06:03;;;;;;;714.87;654.57;;;6.40;99.90;;;;;;5021360;28;20521;-83
2022/11/28 07:08:31;;;;;;;710.73;650.93;;;6.40;99.90;;;;;;5015228;28;20504;-81
2022/11/28 07:10:58;;;;;;;710.27;651.17;;;6.30;99.90;;;;;;5021350;28;20480;-84
2022/11/28 07:13:30;;;;;;;702.70;643.37;;;6.40;99.90;;;;;;5021788;28;20469;-84
2022/11/28 07:15:57;;;;;;;713.50;654.80;;;6.30;99.90;;;;;;5022250;28;20454;-83
2022/11/28 07:18:24;;;;;;;707.50;649.50;;;6.30;99.90;;;;;;5022083;28;20473;-83
2022/11/28 07:20:51;;;;;;;708.30;650.30;;;6.40;99.90;;;;;;5021548;28;20459;-83
2022/11/28 07:23:19;;;;;;;702.20;644.60;;;6.40;99.90;;;;;;5022127;28;20449;-84
2022/11/28 07:25:46;;;;;;;704.40;647.40;;;6.40;99.90;;;;;;5021695;28;20530;-84
2022/11/28 07:28:13;;;;;;;705.73;648.97;;;6.40;99.90;;;;;;5022261;28;20479;-83
2022/11/28 07:30:41;;;;;;;699.30;643.07;;;6.40;99.90;;;;;;5020620;28;20457;-83
2022/11/28 07:33:08;;;;;;;699.80;643.20;;;6.40;99.90;;;;;;5020607;28;20886;-83
2022/11/28 07:35:35;;;;;;;707.77;652.87;;;6.50;99.90;;;;;;5019969;28;20450;-84
2022/11/28 07:38:02;;;;;;;705.83;650.90;;;6.50;99.90;;;;;;5021341;28;20476;-84
2022/11/28 07:40:30;;;;;;;698.50;643.53;;;6.50;99.90;;;;;;5018050;28;20454;-83
2022/11/28 07:43:01;;;;;;;701.10;647.50;;;6.50;99.90;;;;;;5020692;28;20456;-83
2022/11/28 07:45:28;;;;;;;696.73;643.60;;;6.60;99.90;;;;;;5021702;28;20532;-82
2022/11/28 07:47:55;;;;;;;693.67;640.87;;;6.40;99.90;;;;;;5021039;28;20537;-85
2022/11/28 07:50:22;;;;;;;696.53;644.10;;;6.50;99.90;;;;;;5021535;28;20453;-84
2022/11/28 07:52:50;;;;;;;697.43;645.17;;;6.50;99.90;;;;;;5019483;28;20492;-82
2022/11/28 07:55:17;;;;;;;703.77;652.50;;;6.50;99.90;;;;;;5020219;28;20465;-81
2022/11/28 07:57:45;;;;;;;696.10;645.40;;;6.50;99.90;;;;;;5019905;28;20481;-82
2022/11/28 08:00:13;;;;;;;701.40;650.50;;;6.60;99.90;;;;;;5017168;28;20461;-81
2022/11/28 08:02:40;;;;;;;707.77;656.67;;;6.60;99.90;;;;;;5019338;28;20456;-80
2022/11/28 08:05:07;;;;;;;699.77;649.27;;;6.50;99.90;;;;;;5019646;28;20453;-82
2022/11/28 08:07:34;;;;;;;702.77;652.73;;;6.50;99.90;;;;;;5018108;28;20476;-83
2022/11/28 08:10:01;;;;;;;692.50;643.83;;;6.60;99.90;;;;;;5019709;28;20455;-82
2022/11/28 08:12:28;;;;;;;692.80;644.30;;;6.60;99.90;;;;;;5019917;28;20473;-81
2022/11/28 08:14:56;;;;;;;704.03;655.20;;;6.60;99.90;;;;;;5015861;28;20452;-82
2022/11/28 08:17:22;;;;;;;690.43;643.57;;;6.50;99.90;;;;;;5007181;28;21002;-84
2022/11/28 08:19:49;;;;;;;688.70;641.03;;;6.60;99.90;;;;;;4999484;28;20458;-83
2022/11/28 08:22:16;;;;;;;691.43;643.93;;;6.60;99.90;;;;;;5009697;28;20449;-82
2022/11/28 08:24:43;;;;;;;695.00;648.00;;;6.60;99.90;;;;;;5019311;28;20545;-82
2022/11/28 08:27:10;;;;;;;695.50;649.80;;;6.60;99.90;;;;;;5019013;28;20537;-85
2022/11/28 08:29:36;;;;;;;692.40;646.20;;;6.60;99.90;;;;;;5017459;28;20965;-82
2022/11/28 08:32:05;;;;;;;685.33;639.53;;;6.60;99.90;;;;;;5018032;28;20519;-82
2022/11/28 08:34:31;;;;;;;689.03;643.10;;;6.70;99.90;;;;;;5009065;28;20460;-82
2022/11/28 08:36:58;;;;;;;679.17;634.50;;;6.70;99.90;;;;;;4998827;28;20458;-83
2022/11/28 08:39:25;;;;;;;685.43;639.07;;;6.60;99.90;;;;;;5014949;28;20457;-82
2022/11/28 08:41:53;;;;;;;685.97;638.77;;;6.60;99.90;;;;;;5017834;28;20460;-83
2022/11/28 08:44:19;;;;;;;696.67;647.43;;;6.60;99.90;;;;;;5018772;28;20461;-82
2022/11/28 08:46:46;;;;;;;696.97;647.57;;;6.70;99.90;;;;;;5017872;28;20639;-83
2022/11/28 08:49:14;;;;;;;683.60;633.90;;;6.70;99.90;;;;;;5017098;28;20453;-82
2022/11/28 08:51:41;;;;;;;698.25;646.75;;;6.70;99.90;;;;;;4996887;28;20546;-82
2022/11/28 08:54:08;;;;;;;700.30;651.70;;;6.70;99.90;;;;;;4997670;28;20223;-82
2022/11/28 08:56:35;;;;;;;692.17;643.30;;;6.80;99.90;;;;;;4998952;28;20656;-82
2022/11/28 08:59:02;;;;;;;700.27;651.57;;;6.80;99.90;;;;;;4998068;28;20474;-82
2022/11/28 09:01:29;;;;;;;703.13;653.83;;;6.70;99.90;;;;;;4998036;28;20458;-83
2022/11/28 09:03:56;;;;;;;699.77;650.37;;;6.80;99.90;;;;;;4998347;28;20450;-81
2022/11/28 09:06:25;;;;;;;691.43;642.43;;;6.80;99.90;;;;;;4999149;28;20464;-82
2022/11/28 09:08:53;;;;;;;683.03;634.23;;;6.80;99.90;;;;;;4998659;28;20470;-84
2022/11/28 09:11:22;;;;;;;685.07;636.60;;;6.90;99.90;;;;;;4998492;28;20966;-83
2022/11/28 09:13:49;;;;;;;686.73;638.10;;;6.90;99.90;;;;;;4998579;28;20469;-82
2022/11/28 09:16:19;;;;;;;684.67;635.83;;;6.80;99.90;;;;;;4998566;28;20442;-82
2022/11/28 09:18:46;;;;;;;681.97;633.47;;;6.90;99.90;;;;;;4998660;28;20493;-82
2022/11/28 09:21:14;;;;;;;682.83;633.97;;;6.80;99.90;;;;;;4999238;28;20454;-83
2022/11/28 09:23:44;;;;;;;686.13;636.77;;;7.00;99.90;;;;;;4998317;28;20497;-81
2022/11/28 09:26:12;;;;;;;693.60;643.97;;;6.90;99.90;;;;;;4999316;28;20472;-83
2022/11/28 09:28:39;;;;;;;694.93;645.50;;;6.90;99.90;;;;;;4998548;28;20485;-83
2022/11/28 09:31:08;;;;;;;685.40;635.23;;;7.00;99.90;;;;;;4998812;28;20974;-81
2022/11/28 09:33:35;;;;;;;694.50;644.63;;;7.00;99.90;;;;;;4998089;28;20486;-81
2022/11/28 09:36:04;;;;;;;686.70;635.90;;;7.10;99.90;;;;;;4997771;28;20981;-82
2022/11/28 09:38:31;;;;;;;694.27;643.60;;;7.10;99.90;;;;;;4998026;28;20492;-84
2022/11/28 09:41:01;;;;;;;694.53;644.13;;;7.10;99.90;;;;;;4997981;28;20460;-81
2022/11/28 09:43:32;;;;;;;696.40;645.60;;;7.10;99.90;;;;;;4997720;28;20457;-82
2022/11/28 09:46:02;;;;;;;707.70;656.40;;;7.20;99.90;;;;;;4997616;28;20533;-81
2022/11/28 09:48:33;;;;;;;707.93;656.77;;;7.20;99.90;;;;;;4997799;28;20484;-81
2022/11/28 09:51:06;;;;;;;696.07;645.13;;;7.20;99.90;;;;;;4997242;28;20464;-82
2022/11/28 09:53:39;;;;;;;709.10;657.90;;;7.20;99.90;;;;;;4998172;28;20535;-81
2022/11/28 09:56:12;;;;;;;705.50;653.63;;;7.30;99.90;;;;;;4998706;28;20537;-81
2022/11/28 09:58:47;;;;;;;695.00;642.37;;;7.30;99.90;;;;;;4998378;28;20481;-81
2022/11/28 10:01:21;;;;;;;698.73;646.53;;;7.40;99.90;;;;;;5001262;28;20540;-81
2022/11/28 10:03:53;;;;;;;689.20;638.17;;;7.40;99.90;;;;;;5018154;28;20452;-80
2022/11/28 10:06:24;;;;;;;692.33;641.37;;;7.40;99.90;;;;;;5021233;28;20453;-81
2022/11/28 10:09:16;;;;;;;689.63;639.00;;;7.40;99.90;;;;;;5020632;28;20491;-81
2022/11/28 10:11:56;;;;;;;688.17;637.17;;;7.50;99.90;;;;;;5020998;28;20433;-82
2022/11/28 10:14:58;;;;;;;694.37;642.10;;;7.50;99.90;;;;;;5017991;28;21061;-80
2022/11/28 10:17:36;;;;;;;695.37;643.37;;;7.60;99.90;;;;;;5007381;28;20483;-80
2022/11/28 10:20:11;;;;;;;681.10;632.10;;;7.60;99.90;;;;;;5021187;28;20540;-81
2022/11/28 10:22:43;;;;;;;685.50;636.40;;;7.80;99.90;;;;;;5006237;28;20529;-82
2022/11/28 10:25:18;;;;;;;691.93;642.83;;;7.70;99.90;;;;;;5002273;28;20477;-81
2022/11/28 10:27:47;;;;;;;683.47;635.37;;;7.80;99.90;;;;;;5001679;28;20473;-82
2022/11/28 10:30:23;;;;;;;683.53;635.80;;;7.80;99.90;;;;;;5002648;28;20461;-80
2022/11/28 10:33:00;;;;;;;692.20;643.43;;;7.90;99.90;;;;;;5009166;28;20506;-81
2022/11/28 10:35:37;;;;;;;687.77;638.17;;;7.90;99.90;;;;;;5009629;28;20953;-80
2022/11/28 10:38:11;;;;;;;681.90;633.63;;;7.90;99.90;;;;;;5011179;28;20536;-80
2022/11/28 10:40:44;;;;;;;687.00;638.67;;;7.90;99.90;;;;;;5008570;28;20461;-79
2022/11/28 10:43:25;;;;;;;678.07;629.83;;;7.90;99.90;;;;;;5010932;28;20454;-83
2022/11/28 10:46:02;;;;;;;677.47;629.50;;;8.00;99.90;;;;;;5011110;28;20524;-80
2022/11/28 10:48:39;;;;;;;695.20;646.57;;;8.00;99.90;;;;;;5011854;28;20472;-81
2022/11/28 10:51:22;;;;;;;686.13;637.80;;;8.00;99.90;;;;;;5010255;28;20514;-81
2022/11/28 10:54:02;;;;;;;684.43;635.87;;;8.00;99.90;;;;;;5009569;28;20472;-81
2022/11/28 10:59:11;;;;;;;659.67;617.17;;;8.00;99.90;;;;;;5016011;28;20462;-80
2022/11/28 11:01:41;;;;;;;672.37;627.80;;;7.90;99.90;;;;;;5008386;28;20961;-82
2022/11/28 11:04:18;;;;;;;693.13;648.07;;;7.80;99.90;;;;;;5019911;28;20449;-81
2022/11/28 11:06:54;;;;;;;681.70;636.23;;;7.80;99.90;;;;;;5020111;28;20494;-81
2022/11/28 11:09:21;;;;;;;686.67;641.37;;;7.80;99.90;;;;;;5011340;28;20845;-82
2022/11/28 11:11:59;;;;;;;695.27;648.00;;;7.90;99.90;;;;;;5014873;28;20453;-82
2022/11/28 11:14:38;;;;;;;705.60;656.27;;;7.80;99.90;;;;;;5017818;28;20477;-81
2022/11/28 11:17:07;;;;;;;698.67;649.20;;;7.80;99.90;;;;;;5011599;28;20477;-84
2022/11/28 11:19:36;;;;;;;708.50;657.20;;;7.80;99.90;;;;;;5018901;28;20488;-82
2022/11/28 11:22:07;;;;;;;721.23;668.03;;;7.70;99.90;;;;;;5018216;28;20515;-82
2022/11/28 11:24:39;;;;;;;721.77;668.70;;;7.80;99.90;;;;;;5017388;28;20477;-83
2022/11/28 11:27:14;;;;;;;707.90;655.37;;;7.80;99.90;;;;;;5017947;28;20480;-81
2022/11/28 11:29:46;;;;;;;695.97;642.37;;;7.80;99.90;;;;;;5020016;28;20576;-82
2022/11/28 11:32:21;;;;;;;718.10;663.47;;;7.70;99.90;;;;;;5019853;28;20809;-83
2022/11/28 11:34:50;;;;;;;715.33;660.63;;;7.60;99.90;;;;;;5018867;28;20473;-81
2022/11/28 11:37:30;;;;;;;715.27;659.60;;;7.60;99.90;;;;;;5018294;28;20559;-80
2022/11/28 11:39:59;;;;;;;719.80;662.63;;;7.60;99.90;;;;;;5017640;28;20448;-81
2022/11/28 11:42:30;;;;;;;717.87;661.00;;;7.60;99.90;;;;;;5017942;28;20484;-81
2022/11/28 11:45:26;;;;;;;711.67;654.10;;;7.60;99.90;;;;;;5019147;28;20461;-83
2022/11/28 11:47:53;;;;;;;733.90;674.20;;;7.60;99.90;;;;;;5019867;28;20481;-82
2022/11/28 11:50:23;;;;;;;729.37;670.20;;;7.60;99.90;;;;;;5019743;28;20457;-81
2022/11/28 11:53:02;;;;;;;719.40;659.90;;;7.60;99.90;;;;;;5016820;28;20549;-79
2022/11/28 11:55:30;;;;;;;726.40;665.57;;;7.60;99.90;;;;;;5020014;28;20559;-80
2022/11/28 11:58:00;;;;;;;737.00;674.87;;;7.60;99.90;;;;;;5019522;28;20921;-82
2022/11/28 12:00:35;;;;;;;737.23;674.77;;;7.60;99.90;;;;;;5017988;28;20456;-81
2022/11/28 12:03:11;;;;;;;716.50;654.10;;;7.60;99.90;;;;;;5020469;28;21116;-81
2022/11/28 12:05:50;;;;;;;712.27;649.47;;;7.70;99.90;;;;;;5020736;28;20441;-81
2022/11/28 12:08:23;;;;;;;728.20;664.20;;;7.70;99.90;;;;;;5018394;28;20482;-81
2022/11/28 12:10:55;;;;;;;712.73;650.00;;;7.70;99.90;;;;;;5019693;28;20544;-81
2022/11/28 12:13:26;;;;;;;708.90;644.30;;;7.60;99.90;;;;;;5019612;28;20473;-78
2022/11/28 12:16:04;;;;;;;723.67;659.47;;;7.80;99.90;;;;;;5020072;28;20461;-81
2022/11/28 12:18:45;;;;;;;721.00;655.17;;;7.70;99.90;;;;;;5018763;28;20941;-82
2022/11/28 12:21:14;;;;;;;726.07;661.60;;;7.70;99.90;;;;;;5019279;28;20850;-81
2022/11/28 12:23:58;;;;;;;725.43;660.33;;;7.70;99.90;;;;;;5019953;28;20829;-81
2022/11/28 12:26:40;;;;;;;717.33;652.53;;;7.80;99.90;;;;;;5019486;28;20480;-81
2022/11/28 12:29:37;;;;;;;724.83;659.97;;;7.80;99.90;;;;;;5019591;28;20543;-81
2022/11/28 12:32:22;;;;;;;717.07;653.07;;;7.90;99.90;;;;;;5019004;28;20453;-82
2022/11/28 12:35:02;;;;;;;702.73;638.13;;;8.00;99.90;;;;;;5018188;28;20497;-80
2022/11/28 12:37:40;;;;;;;704.97;641.40;;;8.00;99.90;;;;;;5019275;28;21003;-80
2022/11/28 12:40:20;;;;;;;710.77;647.07;;;8.00;99.90;;;;;;5017918;28;20461;-81
2022/11/28 12:43:08;;;;;;;703.87;639.70;;;8.10;99.90;;;;;;5018237;28;20438;-81